sensor_id;sensor_type;location;lat;lon;timestamp;temperature;humidity
60313;DHT22;46158;52.850;6.970;2023-11-18T00:02:05;14.30;85.80
60313;DHT22;46158;52.850;6.970;2023-11-18T00:04:30;14.30;85.70
60313;DHT22;46158;52.850;6.970;2023-11-18T00:06:56;14.30;85.60
60313;DHT22;46158;52.850;6.970;2023-11-18T00:09:22;14.30;85.60
60313;DHT22;46158;52.850;6.970;2023-11-18T00:11:50;14.30;85.60
60313;DHT22;46158;52.850;6.970;2023-11-18T00:14:16;14.30;85.60
60313;DHT22;46158;52.850;6.970;2023-11-18T00:16:41;14.30;85.60
60313;DHT22;46158;52.850;6.970;2023-11-18T00:19:07;14.20;85.50
60313;DHT22;46158;52.850;6.970;2023-11-18T00:21:35;14.20;85.50
60313;DHT22;46158;52.850;6.970;2023-11-18T00:24:01;14.20;85.40
60313;DHT22;46158;52.850;6.970;2023-11-18T00:26:27;14.20;85.40
60313;DHT22;46158;52.850;6.970;2023-11-18T00:28:53;14.20;85.30
60313;DHT22;46158;52.850;6.970;2023-11-18T00:31:18;14.20;85.30
60313;DHT22;46158;52.850;6.970;2023-11-18T00:33:44;14.20;85.30
60313;DHT22;46158;52.850;6.970;2023-11-18T00:36:10;14.10;85.20
60313;DHT22;46158;52.850;6.970;2023-11-18T00:38:36;14.10;85.10
60313;DHT22;46158;52.850;6.970;2023-11-18T00:41:01;14.10;85.20
60313;DHT22;46158;52.850;6.970;2023-11-18T00:43:27;14.10;85.10
60313;DHT22;46158;52.850;6.970;2023-11-18T00:45:53;14.10;85.10
60313;DHT22;46158;52.850;6.970;2023-11-18T00:48:18;14.10;85.10
60313;DHT22;46158;52.850;6.970;2023-11-18T00:50:44;14.00;85.00
60313;DHT22;46158;52.850;6.970;2023-11-18T00:53:09;14.10;85.00
60313;DHT22;46158;52.850;6.970;2023-11-18T00:55:35;14.00;84.90
60313;DHT22;46158;52.850;6.970;2023-11-18T00:58:01;14.00;84.90
60313;DHT22;46158;52.850;6.970;2023-11-18T01:00:27;14.00;84.90
60313;DHT22;46158;52.850;6.970;2023-11-18T01:02:53;14.00;84.80
60313;DHT22;46158;52.850;6.970;2023-11-18T01:05:20;14.00;84.80
60313;DHT22;46158;52.850;6.970;2023-11-18T01:07:46;14.00;84.80
60313;DHT22;46158;52.850;6.970;2023-11-18T01:10:12;14.00;84.80
60313;DHT22;46158;52.850;6.970;2023-11-18T01:12:39;13.90;84.70
60313;DHT22;46158;52.850;6.970;2023-11-18T01:15:06;13.90;84.70
60313;DHT22;46158;52.850;6.970;2023-11-18T01:17:33;13.90;84.60
60313;DHT22;46158;52.850;6.970;2023-11-18T01:19:59;13.90;84.60
60313;DHT22;46158;52.850;6.970;2023-11-18T01:22:26;13.90;84.60
60313;DHT22;46158;52.850;6.970;2023-11-18T01:24:52;13.90;84.60
60313;DHT22;46158;52.850;6.970;2023-11-18T01:27:18;13.90;84.60
60313;DHT22;46158;52.850;6.970;2023-11-18T01:29:45;13.90;84.50
60313;DHT22;46158;52.850;6.970;2023-11-18T01:32:12;13.80;84.50
60313;DHT22;46158;52.850;6.970;2023-11-18T01:34:39;13.80;84.50
60313;DHT22;46158;52.850;6.970;2023-11-18T01:37:05;13.80;84.50
60313;DHT22;46158;52.850;6.970;2023-11-18T01:39:36;13.80;84.60
60313;DHT22;46158;52.850;6.970;2023-11-18T01:42:02;13.80;84.60
60313;DHT22;46158;52.850;6.970;2023-11-18T01:44:29;13.80;84.70
60313;DHT22;46158;52.850;6.970;2023-11-18T01:46:58;13.80;84.70
60313;DHT22;46158;52.850;6.970;2023-11-18T01:49:26;13.80;84.60
60313;DHT22;46158;52.850;6.970;2023-11-18T01:51:55;13.80;84.60
60313;DHT22;46158;52.850;6.970;2023-11-18T01:54:22;13.70;84.60
60313;DHT22;46158;52.850;6.970;2023-11-18T01:56:49;13.70;84.80
60313;DHT22;46158;52.850;6.970;2023-11-18T01:59:15;13.80;84.60
60313;DHT22;46158;52.850;6.970;2023-11-18T02:01:47;13.80;84.60
60313;DHT22;46158;52.850;6.970;2023-11-18T02:04:14;13.70;84.50
60313;DHT22;46158;52.850;6.970;2023-11-18T02:06:40;13.80;84.50
60313;DHT22;46158;52.850;6.970;2023-11-18T02:09:06;13.70;84.50
60313;DHT22;46158;52.850;6.970;2023-11-18T02:11:37;13.80;84.50
60313;DHT22;46158;52.850;6.970;2023-11-18T02:14:08;13.80;84.40
60313;DHT22;46158;52.850;6.970;2023-11-18T02:16:39;13.70;84.40
60313;DHT22;46158;52.850;6.970;2023-11-18T02:19:16;13.70;84.40
60313;DHT22;46158;52.850;6.970;2023-11-18T02:21:45;13.70;84.30
60313;DHT22;46158;52.850;6.970;2023-11-18T02:24:11;13.70;84.30
60313;DHT22;46158;52.850;6.970;2023-11-18T02:26:49;13.70;84.30
60313;DHT22;46158;52.850;6.970;2023-11-18T02:29:15;13.70;84.30
60313;DHT22;46158;52.850;6.970;2023-11-18T02:31:41;13.70;84.30
60313;DHT22;46158;52.850;6.970;2023-11-18T02:34:13;13.70;84.30
60313;DHT22;46158;52.850;6.970;2023-11-18T02:36:48;13.70;84.20
60313;DHT22;46158;52.850;6.970;2023-11-18T02:39:22;13.70;84.20
60313;DHT22;46158;52.850;6.970;2023-11-18T02:41:52;13.70;84.20
60313;DHT22;46158;52.850;6.970;2023-11-18T02:44:22;13.70;84.20
60313;DHT22;46158;52.850;6.970;2023-11-18T02:46:48;13.70;84.20
60313;DHT22;46158;52.850;6.970;2023-11-18T02:49:15;13.70;84.20
60313;DHT22;46158;52.850;6.970;2023-11-18T02:51:41;13.70;84.20
60313;DHT22;46158;52.850;6.970;2023-11-18T02:54:08;13.70;84.20
60313;DHT22;46158;52.850;6.970;2023-11-18T02:56:39;13.70;84.20
60313;DHT22;46158;52.850;6.970;2023-11-18T02:59:05;13.70;84.10
60313;DHT22;46158;52.850;6.970;2023-11-18T03:01:32;13.70;84.20
60313;DHT22;46158;52.850;6.970;2023-11-18T03:03:59;13.70;84.20
60313;DHT22;46158;52.850;6.970;2023-11-18T03:06:25;13.70;84.20
60313;DHT22;46158;52.850;6.970;2023-11-18T03:08:52;13.70;84.20
60313;DHT22;46158;52.850;6.970;2023-11-18T03:11:21;13.60;84.10
60313;DHT22;46158;52.850;6.970;2023-11-18T03:13:48;13.60;84.00
60313;DHT22;46158;52.850;6.970;2023-11-18T03:16:13;13.60;84.10
60313;DHT22;46158;52.850;6.970;2023-11-18T03:18:40;13.70;84.10
60313;DHT22;46158;52.850;6.970;2023-11-18T03:21:11;13.60;84.00
60313;DHT22;46158;52.850;6.970;2023-11-18T03:23:40;13.60;84.00
60313;DHT22;46158;52.850;6.970;2023-11-18T03:26:07;13.60;84.00
60313;DHT22;46158;52.850;6.970;2023-11-18T03:28:33;13.60;84.00
60313;DHT22;46158;52.850;6.970;2023-11-18T03:30:59;13.60;84.00
60313;DHT22;46158;52.850;6.970;2023-11-18T03:33:25;13.60;83.90
60313;DHT22;46158;52.850;6.970;2023-11-18T03:35:50;13.60;83.90
60313;DHT22;46158;52.850;6.970;2023-11-18T03:38:16;13.60;83.90
60313;DHT22;46158;52.850;6.970;2023-11-18T03:40:43;13.60;83.90
60313;DHT22;46158;52.850;6.970;2023-11-18T03:43:11;13.60;83.90
60313;DHT22;46158;52.850;6.970;2023-11-18T03:45:39;13.60;83.90
60313;DHT22;46158;52.850;6.970;2023-11-18T03:48:05;13.60;83.90
60313;DHT22;46158;52.850;6.970;2023-11-18T03:50:32;13.60;83.90
60313;DHT22;46158;52.850;6.970;2023-11-18T03:52:58;13.60;83.90
60313;DHT22;46158;52.850;6.970;2023-11-18T03:55:24;13.60;83.90
60313;DHT22;46158;52.850;6.970;2023-11-18T03:57:51;13.60;83.90
60313;DHT22;46158;52.850;6.970;2023-11-18T04:00:17;13.60;83.90
60313;DHT22;46158;52.850;6.970;2023-11-18T04:02:43;13.60;83.90
60313;DHT22;46158;52.850;6.970;2023-11-18T04:05:11;13.60;83.90
60313;DHT22;46158;52.850;6.970;2023-11-18T04:07:37;13.60;83.90
60313;DHT22;46158;52.850;6.970;2023-11-18T04:10:03;13.60;84.00
60313;DHT22;46158;52.850;6.970;2023-11-18T04:12:32;13.60;83.90
60313;DHT22;46158;52.850;6.970;2023-11-18T04:14:59;13.60;84.00
60313;DHT22;46158;52.850;6.970;2023-11-18T04:17:25;13.60;84.00
60313;DHT22;46158;52.850;6.970;2023-11-18T04:19:53;13.60;84.00
60313;DHT22;46158;52.850;6.970;2023-11-18T04:22:21;13.60;84.00
60313;DHT22;46158;52.850;6.970;2023-11-18T04:24:47;13.70;84.00
60313;DHT22;46158;52.850;6.970;2023-11-18T04:27:13;13.70;84.00
60313;DHT22;46158;52.850;6.970;2023-11-18T04:29:39;13.70;83.90
60313;DHT22;46158;52.850;6.970;2023-11-18T04:32:06;13.70;83.90
60313;DHT22;46158;52.850;6.970;2023-11-18T04:34:35;13.70;83.80
60313;DHT22;46158;52.850;6.970;2023-11-18T04:37:05;13.70;83.80
60313;DHT22;46158;52.850;6.970;2023-11-18T04:39:32;13.70;83.80
60313;DHT22;46158;52.850;6.970;2023-11-18T04:41:58;13.70;83.80
60313;DHT22;46158;52.850;6.970;2023-11-18T04:44:23;13.70;83.70
60313;DHT22;46158;52.850;6.970;2023-11-18T04:46:49;13.70;83.70
60313;DHT22;46158;52.850;6.970;2023-11-18T04:49:15;13.70;83.70
60313;DHT22;46158;52.850;6.970;2023-11-18T04:51:41;13.70;83.70
60313;DHT22;46158;52.850;6.970;2023-11-18T04:54:07;13.70;83.70
60313;DHT22;46158;52.850;6.970;2023-11-18T04:56:34;13.70;84.40
60313;DHT22;46158;52.850;6.970;2023-11-18T04:59:02;13.70;83.70
60313;DHT22;46158;52.850;6.970;2023-11-18T05:01:27;13.70;83.70
60313;DHT22;46158;52.850;6.970;2023-11-18T05:03:53;13.70;83.70
60313;DHT22;46158;52.850;6.970;2023-11-18T05:06:19;13.70;83.80
60313;DHT22;46158;52.850;6.970;2023-11-18T05:08:45;13.70;83.70
60313;DHT22;46158;52.850;6.970;2023-11-18T05:11:11;13.70;83.70
60313;DHT22;46158;52.850;6.970;2023-11-18T05:13:38;13.70;83.70
60313;DHT22;46158;52.850;6.970;2023-11-18T05:16:06;13.70;83.70
60313;DHT22;46158;52.850;6.970;2023-11-18T05:18:32;13.70;83.70
60313;DHT22;46158;52.850;6.970;2023-11-18T05:21:03;13.70;83.70
60313;DHT22;46158;52.850;6.970;2023-11-18T05:23:31;13.70;83.70
60313;DHT22;46158;52.850;6.970;2023-11-18T05:25:57;13.70;83.70
60313;DHT22;46158;52.850;6.970;2023-11-18T05:28:26;13.80;84.30
60313;DHT22;46158;52.850;6.970;2023-11-18T05:30:52;13.80;83.70
60313;DHT22;46158;52.850;6.970;2023-11-18T05:33:18;13.80;83.60
60313;DHT22;46158;52.850;6.970;2023-11-18T05:35:45;13.80;83.50
60313;DHT22;46158;52.850;6.970;2023-11-18T05:38:15;13.80;83.50
60313;DHT22;46158;52.850;6.970;2023-11-18T05:40:47;13.80;83.50
60313;DHT22;46158;52.850;6.970;2023-11-18T05:43:24;13.80;83.40
60313;DHT22;46158;52.850;6.970;2023-11-18T05:45:51;13.90;83.40
60313;DHT22;46158;52.850;6.970;2023-11-18T05:48:36;13.90;83.30
60313;DHT22;46158;52.850;6.970;2023-11-18T05:51:02;13.90;83.30
60313;DHT22;46158;52.850;6.970;2023-11-18T05:53:27;13.90;83.20
60313;DHT22;46158;52.850;6.970;2023-11-18T05:55:54;13.90;83.20
60313;DHT22;46158;52.850;6.970;2023-11-18T05:58:20;13.90;83.10
60313;DHT22;46158;52.850;6.970;2023-11-18T06:00:47;13.80;83.00
60313;DHT22;46158;52.850;6.970;2023-11-18T06:03:13;13.90;83.00
60313;DHT22;46158;52.850;6.970;2023-11-18T06:05:38;13.90;83.00
60313;DHT22;46158;52.850;6.970;2023-11-18T06:08:05;13.90;83.00
60313;DHT22;46158;52.850;6.970;2023-11-18T06:10:30;13.90;83.00
60313;DHT22;46158;52.850;6.970;2023-11-18T06:13:00;13.90;83.00
60313;DHT22;46158;52.850;6.970;2023-11-18T06:15:25;13.90;82.90
60313;DHT22;46158;52.850;6.970;2023-11-18T06:17:53;13.90;82.90
60313;DHT22;46158;52.850;6.970;2023-11-18T06:20:21;13.90;82.80
60313;DHT22;46158;52.850;6.970;2023-11-18T06:22:49;13.90;82.80
60313;DHT22;46158;52.850;6.970;2023-11-18T06:25:15;13.90;82.80
60313;DHT22;46158;52.850;6.970;2023-11-18T06:27:43;14.00;82.80
60313;DHT22;46158;52.850;6.970;2023-11-18T06:30:11;14.00;82.80
60313;DHT22;46158;52.850;6.970;2023-11-18T06:32:38;14.00;82.90
60313;DHT22;46158;52.850;6.970;2023-11-18T06:35:04;14.00;83.10
60313;DHT22;46158;52.850;6.970;2023-11-18T06:37:34;14.00;83.10
60313;DHT22;46158;52.850;6.970;2023-11-18T06:40:00;14.00;83.20
60313;DHT22;46158;52.850;6.970;2023-11-18T06:42:25;14.00;83.40
60313;DHT22;46158;52.850;6.970;2023-11-18T06:44:51;14.00;83.60
60313;DHT22;46158;52.850;6.970;2023-11-18T06:47:17;14.00;84.30
60313;DHT22;46158;52.850;6.970;2023-11-18T06:49:45;14.00;83.70
60313;DHT22;46158;52.850;6.970;2023-11-18T06:52:13;14.00;83.80
60313;DHT22;46158;52.850;6.970;2023-11-18T06:54:41;13.90;83.80
60313;DHT22;46158;52.850;6.970;2023-11-18T06:57:07;14.00;83.90
60313;DHT22;46158;52.850;6.970;2023-11-18T06:59:32;14.00;84.00
60313;DHT22;46158;52.850;6.970;2023-11-18T07:01:58;14.00;84.10
60313;DHT22;46158;52.850;6.970;2023-11-18T07:04:24;14.00;84.10
60313;DHT22;46158;52.850;6.970;2023-11-18T07:06:50;14.00;84.20
60313;DHT22;46158;52.850;6.970;2023-11-18T07:09:16;14.00;84.20
60313;DHT22;46158;52.850;6.970;2023-11-18T07:11:47;14.10;84.30
60313;DHT22;46158;52.850;6.970;2023-11-18T07:14:13;14.00;84.40
60313;DHT22;46158;52.850;6.970;2023-11-18T07:16:41;14.00;84.40
60313;DHT22;46158;52.850;6.970;2023-11-18T07:19:07;14.10;84.50
60313;DHT22;46158;52.850;6.970;2023-11-18T07:21:35;14.10;84.60
60313;DHT22;46158;52.850;6.970;2023-11-18T07:24:01;14.10;84.60
60313;DHT22;46158;52.850;6.970;2023-11-18T07:26:28;14.10;84.80
60313;DHT22;46158;52.850;6.970;2023-11-18T07:28:53;14.10;84.80
60313;DHT22;46158;52.850;6.970;2023-11-18T07:31:19;14.10;84.80
60313;DHT22;46158;52.850;6.970;2023-11-18T07:33:45;14.10;84.90
60313;DHT22;46158;52.850;6.970;2023-11-18T07:36:18;14.10;85.00
60313;DHT22;46158;52.850;6.970;2023-11-18T07:38:46;14.10;85.10
60313;DHT22;46158;52.850;6.970;2023-11-18T07:41:12;14.20;85.20
60313;DHT22;46158;52.850;6.970;2023-11-18T07:43:50;14.20;85.20
60313;DHT22;46158;52.850;6.970;2023-11-18T07:46:16;14.20;85.20
60313;DHT22;46158;52.850;6.970;2023-11-18T07:48:42;14.20;85.30
60313;DHT22;46158;52.850;6.970;2023-11-18T07:51:07;14.20;85.20
60313;DHT22;46158;52.850;6.970;2023-11-18T07:53:33;14.20;85.10
60313;DHT22;46158;52.850;6.970;2023-11-18T07:55:59;14.20;85.10
60313;DHT22;46158;52.850;6.970;2023-11-18T07:58:27;14.20;85.20
60313;DHT22;46158;52.850;6.970;2023-11-18T08:00:53;14.20;85.20
60313;DHT22;46158;52.850;6.970;2023-11-18T08:03:20;14.30;85.30
60313;DHT22;46158;52.850;6.970;2023-11-18T08:05:46;14.30;85.50
60313;DHT22;46158;52.850;6.970;2023-11-18T08:08:13;14.30;85.60
60313;DHT22;46158;52.850;6.970;2023-11-18T08:10:39;14.30;85.70
60313;DHT22;46158;52.850;6.970;2023-11-18T08:13:08;14.30;85.80
60313;DHT22;46158;52.850;6.970;2023-11-18T08:15:38;14.30;85.90
60313;DHT22;46158;52.850;6.970;2023-11-18T08:18:03;14.40;86.10
60313;DHT22;46158;52.850;6.970;2023-11-18T08:20:29;14.40;86.30
60313;DHT22;46158;52.850;6.970;2023-11-18T08:22:56;14.40;86.50
60313;DHT22;46158;52.850;6.970;2023-11-18T08:25:21;14.40;86.70
60313;DHT22;46158;52.850;6.970;2023-11-18T08:27:48;14.40;86.80
60313;DHT22;46158;52.850;6.970;2023-11-18T08:30:14;14.40;86.90
60313;DHT22;46158;52.850;6.970;2023-11-18T08:32:41;14.40;87.10
60313;DHT22;46158;52.850;6.970;2023-11-18T08:35:13;14.40;87.10
60313;DHT22;46158;52.850;6.970;2023-11-18T08:37:40;14.40;87.00
60313;DHT22;46158;52.850;6.970;2023-11-18T08:40:07;14.40;87.10
60313;DHT22;46158;52.850;6.970;2023-11-18T08:42:42;14.50;87.20
60313;DHT22;46158;52.850;6.970;2023-11-18T08:45:14;14.50;87.20
60313;DHT22;46158;52.850;6.970;2023-11-18T08:47:45;14.50;87.20
60313;DHT22;46158;52.850;6.970;2023-11-18T08:50:15;14.50;87.10
60313;DHT22;46158;52.850;6.970;2023-11-18T08:52:45;14.50;87.00
60313;DHT22;46158;52.850;6.970;2023-11-18T08:55:16;14.50;87.00
60313;DHT22;46158;52.850;6.970;2023-11-18T08:57:51;14.50;87.00
60313;DHT22;46158;52.850;6.970;2023-11-18T09:00:30;14.50;87.00
60313;DHT22;46158;52.850;6.970;2023-11-18T09:03:12;14.50;86.90
60313;DHT22;46158;52.850;6.970;2023-11-18T09:05:57;14.50;86.90
60313;DHT22;46158;52.850;6.970;2023-11-18T09:08:31;14.50;86.80
60313;DHT22;46158;52.850;6.970;2023-11-18T09:11:16;14.60;86.90
60313;DHT22;46158;52.850;6.970;2023-11-18T09:13:47;14.60;86.80
60313;DHT22;46158;52.850;6.970;2023-11-18T09:16:20;14.60;87.00
60313;DHT22;46158;52.850;6.970;2023-11-18T09:18:51;14.60;87.00
60313;DHT22;46158;52.850;6.970;2023-11-18T09:21:17;14.60;87.10
60313;DHT22;46158;52.850;6.970;2023-11-18T09:23:48;14.70;87.10
60313;DHT22;46158;52.850;6.970;2023-11-18T09:26:14;14.70;86.70
60313;DHT22;46158;52.850;6.970;2023-11-18T09:28:42;14.70;86.50
60313;DHT22;46158;52.850;6.970;2023-11-18T09:31:09;14.80;86.40
60313;DHT22;46158;52.850;6.970;2023-11-18T09:33:40;14.70;86.10
60313;DHT22;46158;52.850;6.970;2023-11-18T09:36:11;14.80;85.90
60313;DHT22;46158;52.850;6.970;2023-11-18T09:38:41;14.80;85.70
60313;DHT22;46158;52.850;6.970;2023-11-18T09:41:10;14.80;85.70
60313;DHT22;46158;52.850;6.970;2023-11-18T09:43:44;14.70;85.60
60313;DHT22;46158;52.850;6.970;2023-11-18T09:46:13;14.70;85.70
60313;DHT22;46158;52.850;6.970;2023-11-18T09:51:11;14.80;85.70
60313;DHT22;46158;52.850;6.970;2023-11-18T09:53:41;14.70;85.50
60313;DHT22;46158;52.850;6.970;2023-11-18T09:56:10;14.70;85.40
60313;DHT22;46158;52.850;6.970;2023-11-18T09:59:16;14.70;85.30
60313;DHT22;46158;52.850;6.970;2023-11-18T10:01:56;14.70;85.00
60313;DHT22;46158;52.850;6.970;2023-11-18T10:04:24;14.70;84.80
60313;DHT22;46158;52.850;6.970;2023-11-18T10:06:54;14.70;84.80
60313;DHT22;46158;52.850;6.970;2023-11-18T10:09:23;14.70;84.60
60313;DHT22;46158;52.850;6.970;2023-11-18T10:11:55;14.70;84.50
60313;DHT22;46158;52.850;6.970;2023-11-18T10:14:34;14.70;84.50
60313;DHT22;46158;52.850;6.970;2023-11-18T10:17:04;14.70;84.50
60313;DHT22;46158;52.850;6.970;2023-11-18T10:19:54;14.70;84.50
60313;DHT22;46158;52.850;6.970;2023-11-18T10:22:29;14.70;84.50
60313;DHT22;46158;52.850;6.970;2023-11-18T10:24:55;14.70;84.70
60313;DHT22;46158;52.850;6.970;2023-11-18T10:27:25;14.60;84.50
60313;DHT22;46158;52.850;6.970;2023-11-18T10:29:55;14.70;84.50
60313;DHT22;46158;52.850;6.970;2023-11-18T10:32:24;14.70;84.30
60313;DHT22;46158;52.850;6.970;2023-11-18T10:34:57;14.70;84.30
60313;DHT22;46158;52.850;6.970;2023-11-18T10:37:23;14.70;84.40
60313;DHT22;46158;52.850;6.970;2023-11-18T10:39:50;14.70;84.50
60313;DHT22;46158;52.850;6.970;2023-11-18T10:42:17;14.70;84.50
60313;DHT22;46158;52.850;6.970;2023-11-18T10:44:58;14.70;84.60
60313;DHT22;46158;52.850;6.970;2023-11-18T10:47:27;14.70;84.50
60313;DHT22;46158;52.850;6.970;2023-11-18T10:49:54;14.70;84.50
60313;DHT22;46158;52.850;6.970;2023-11-18T10:52:24;14.70;84.40
60313;DHT22;46158;52.850;6.970;2023-11-18T10:55:01;14.70;84.40
60313;DHT22;46158;52.850;6.970;2023-11-18T10:57:32;14.70;84.20
60313;DHT22;46158;52.850;6.970;2023-11-18T11:00:05;14.70;84.20
60313;DHT22;46158;52.850;6.970;2023-11-18T11:02:39;14.70;84.10
60313;DHT22;46158;52.850;6.970;2023-11-18T11:05:10;14.70;84.10
60313;DHT22;46158;52.850;6.970;2023-11-18T11:07:45;14.70;83.90
60313;DHT22;46158;52.850;6.970;2023-11-18T11:10:11;14.70;83.90
60313;DHT22;46158;52.850;6.970;2023-11-18T11:13:05;14.70;83.80
60313;DHT22;46158;52.850;6.970;2023-11-18T11:15:40;14.70;83.60
60313;DHT22;46158;52.850;6.970;2023-11-18T11:18:08;14.70;83.60
60313;DHT22;46158;52.850;6.970;2023-11-18T11:20:42;14.70;83.40
60313;DHT22;46158;52.850;6.970;2023-11-18T11:26:24;14.70;83.30
60313;DHT22;46158;52.850;6.970;2023-11-18T11:29:18;14.70;83.20
60313;DHT22;46158;52.850;6.970;2023-11-18T11:34:26;14.70;83.20
60313;DHT22;46158;52.850;6.970;2023-11-18T11:36:56;14.70;83.20
60313;DHT22;46158;52.850;6.970;2023-11-18T11:39:24;14.70;83.20
60313;DHT22;46158;52.850;6.970;2023-11-18T11:41:55;14.70;83.30
60313;DHT22;46158;52.850;6.970;2023-11-18T11:44:22;14.70;83.20
60313;DHT22;46158;52.850;6.970;2023-11-18T11:46:56;14.70;83.30
60313;DHT22;46158;52.850;6.970;2023-11-18T11:49:28;14.70;83.30
60313;DHT22;46158;52.850;6.970;2023-11-18T11:52:48;14.70;83.30
60313;DHT22;46158;52.850;6.970;2023-11-18T11:55:10;14.70;83.20
60313;DHT22;46158;52.850;6.970;2023-11-18T11:57:39;14.80;83.40
60313;DHT22;46158;52.850;6.970;2023-11-18T12:00:09;14.80;83.50
60313;DHT22;46158;52.850;6.970;2023-11-18T12:02:51;14.80;83.60
60313;DHT22;46158;52.850;6.970;2023-11-18T12:05:26;14.70;83.60
60313;DHT22;46158;52.850;6.970;2023-11-18T12:07:55;14.80;83.90
60313;DHT22;46158;52.850;6.970;2023-11-18T12:10:26;14.80;84.00
60313;DHT22;46158;52.850;6.970;2023-11-18T12:13:12;14.80;84.10
60313;DHT22;46158;52.850;6.970;2023-11-18T12:15:54;14.80;84.20
60313;DHT22;46158;52.850;6.970;2023-11-18T12:18:25;14.80;84.40
60313;DHT22;46158;52.850;6.970;2023-11-18T12:20:51;14.80;84.60
60313;DHT22;46158;52.850;6.970;2023-11-18T12:23:21;14.80;84.60
60313;DHT22;46158;52.850;6.970;2023-11-18T12:25:54;14.90;84.70
60313;DHT22;46158;52.850;6.970;2023-11-18T12:28:27;14.80;84.60
60313;DHT22;46158;52.850;6.970;2023-11-18T12:30:54;14.90;84.60
60313;DHT22;46158;52.850;6.970;2023-11-18T12:42:04;14.90;84.60
60313;DHT22;46158;52.850;6.970;2023-11-18T12:44:36;14.90;84.60
60313;DHT22;46158;52.850;6.970;2023-11-18T12:47:05;14.90;84.50
60313;DHT22;46158;52.850;6.970;2023-11-18T12:49:44;14.90;84.50
60313;DHT22;46158;52.850;6.970;2023-11-18T12:52:11;15.00;84.40
60313;DHT22;46158;52.850;6.970;2023-11-18T12:54:41;15.00;84.40
60313;DHT22;46158;52.850;6.970;2023-11-18T12:57:12;15.00;84.40
60313;DHT22;46158;52.850;6.970;2023-11-18T12:59:41;15.00;84.50
60313;DHT22;46158;52.850;6.970;2023-11-18T13:02:08;15.00;84.50
60313;DHT22;46158;52.850;6.970;2023-11-18T13:04:39;15.00;84.60
60313;DHT22;46158;52.850;6.970;2023-11-18T13:07:06;15.00;84.30
60313;DHT22;46158;52.850;6.970;2023-11-18T13:09:34;15.00;84.20
60313;DHT22;46158;52.850;6.970;2023-11-18T13:12:03;15.00;84.20
60313;DHT22;46158;52.850;6.970;2023-11-18T13:14:35;15.00;84.30
60313;DHT22;46158;52.850;6.970;2023-11-18T13:17:09;15.00;84.30
60313;DHT22;46158;52.850;6.970;2023-11-18T13:19:37;15.00;84.30
60313;DHT22;46158;52.850;6.970;2023-11-18T13:22:11;15.00;84.30
60313;DHT22;46158;52.850;6.970;2023-11-18T13:24:42;15.00;84.50
60313;DHT22;46158;52.850;6.970;2023-11-18T13:27:15;15.10;84.50
60313;DHT22;46158;52.850;6.970;2023-11-18T13:29:45;15.00;84.50
60313;DHT22;46158;52.850;6.970;2023-11-18T13:32:11;15.00;84.50
60313;DHT22;46158;52.850;6.970;2023-11-18T13:34:39;15.10;84.90
60313;DHT22;46158;52.850;6.970;2023-11-18T13:37:07;15.10;85.00
60313;DHT22;46158;52.850;6.970;2023-11-18T13:39:34;15.10;85.20
60313;DHT22;46158;52.850;6.970;2023-11-18T13:42:19;15.10;85.30
60313;DHT22;46158;52.850;6.970;2023-11-18T13:44:45;15.20;85.20
60313;DHT22;46158;52.850;6.970;2023-11-18T13:47:11;15.20;85.40
60313;DHT22;46158;52.850;6.970;2023-11-18T13:49:38;15.20;85.40
60313;DHT22;46158;52.850;6.970;2023-11-18T13:52:08;15.20;85.50
60313;DHT22;46158;52.850;6.970;2023-11-18T13:54:36;15.20;85.50
60313;DHT22;46158;52.850;6.970;2023-11-18T13:57:03;15.30;85.60
60313;DHT22;46158;52.850;6.970;2023-11-18T13:59:29;15.30;86.30
60313;DHT22;46158;52.850;6.970;2023-11-18T14:01:56;15.30;85.70
60313;DHT22;46158;52.850;6.970;2023-11-18T14:04:33;15.30;85.70
60313;DHT22;46158;52.850;6.970;2023-11-18T14:07:01;15.30;85.50
60313;DHT22;46158;52.850;6.970;2023-11-18T14:09:33;15.30;85.60
60313;DHT22;46158;52.850;6.970;2023-11-18T14:12:06;15.30;85.50
60313;DHT22;46158;52.850;6.970;2023-11-18T14:14:32;15.30;85.50
60313;DHT22;46158;52.850;6.970;2023-11-18T14:16:58;15.30;85.50
60313;DHT22;46158;52.850;6.970;2023-11-18T14:19:28;15.30;85.60
60313;DHT22;46158;52.850;6.970;2023-11-18T14:21:54;15.30;85.60
60313;DHT22;46158;52.850;6.970;2023-11-18T14:24:20;15.30;85.60
60313;DHT22;46158;52.850;6.970;2023-11-18T14:26:49;15.30;85.40
60313;DHT22;46158;52.850;6.970;2023-11-18T14:29:18;15.30;85.40
60313;DHT22;46158;52.850;6.970;2023-11-18T14:31:45;15.40;85.40
60313;DHT22;46158;52.850;6.970;2023-11-18T14:34:11;15.40;85.30
60313;DHT22;46158;52.850;6.970;2023-11-18T14:36:37;15.40;85.10
60313;DHT22;46158;52.850;6.970;2023-11-18T14:39:03;15.40;85.10
60313;DHT22;46158;52.850;6.970;2023-11-18T14:41:30;15.40;84.90
60313;DHT22;46158;52.850;6.970;2023-11-18T14:43:57;15.40;84.70
60313;DHT22;46158;52.850;6.970;2023-11-18T14:46:23;15.40;84.70
60313;DHT22;46158;52.850;6.970;2023-11-18T14:48:49;15.40;84.70
60313;DHT22;46158;52.850;6.970;2023-11-18T14:51:16;15.50;84.70
60313;DHT22;46158;52.850;6.970;2023-11-18T14:53:42;15.40;85.40
60313;DHT22;46158;52.850;6.970;2023-11-18T14:56:09;15.50;84.70
60313;DHT22;46158;52.850;6.970;2023-11-18T14:58:35;15.50;85.30
60313;DHT22;46158;52.850;6.970;2023-11-18T15:01:04;15.50;84.50
60313;DHT22;46158;52.850;6.970;2023-11-18T15:03:33;15.50;84.50
60313;DHT22;46158;52.850;6.970;2023-11-18T15:05:58;15.50;84.40
60313;DHT22;46158;52.850;6.970;2023-11-18T15:08:24;15.50;84.30
60313;DHT22;46158;52.850;6.970;2023-11-18T15:10:50;15.50;84.90
60313;DHT22;46158;52.850;6.970;2023-11-18T15:13:16;15.50;84.10
60313;DHT22;46158;52.850;6.970;2023-11-18T15:15:43;15.50;84.60
60313;DHT22;46158;52.850;6.970;2023-11-18T15:18:13;15.50;83.80
60313;DHT22;46158;52.850;6.970;2023-11-18T15:20:43;15.50;83.80
60313;DHT22;46158;52.850;6.970;2023-11-18T15:23:13;15.60;83.80
60313;DHT22;46158;52.850;6.970;2023-11-18T15:25:39;15.60;83.80
60313;DHT22;46158;52.850;6.970;2023-11-18T15:28:06;15.60;83.90
60313;DHT22;46158;52.850;6.970;2023-11-18T15:30:36;15.60;84.00
60313;DHT22;46158;52.850;6.970;2023-11-18T15:33:02;15.60;84.20
60313;DHT22;46158;52.850;6.970;2023-11-18T15:35:28;15.60;84.20
60313;DHT22;46158;52.850;6.970;2023-11-18T15:37:54;15.60;84.20
60313;DHT22;46158;52.850;6.970;2023-11-18T15:40:20;15.60;84.10
60313;DHT22;46158;52.850;6.970;2023-11-18T15:42:48;15.60;84.10
60313;DHT22;46158;52.850;6.970;2023-11-18T15:45:18;15.70;84.10
60313;DHT22;46158;52.850;6.970;2023-11-18T15:47:44;15.70;84.10
60313;DHT22;46158;52.850;6.970;2023-11-18T15:50:13;15.70;84.00
60313;DHT22;46158;52.850;6.970;2023-11-18T15:52:50;15.70;84.00
60313;DHT22;46158;52.850;6.970;2023-11-18T15:55:19;15.70;84.00
60313;DHT22;46158;52.850;6.970;2023-11-18T15:57:47;15.70;83.80